< < Back
Terminal Aerodrome Forecast


Current Version              Previous Versions:   1  2  3  4  5  6  7  8  9  

Terminal Aerodrome Forecast

380
FTUS44 KOHX 011700
TAFBNA
TAF
KBNA 011720Z 0118/0218 18004KT P6SM SCT045=

Latest METAR

363
SAUS70 KWBC 020958
MTRBNA
METAR KBNA 020953Z 18004KT 10SM CLR 17/14 A2999 RMK AO2 SLP149
T01720144


USA.gov is the U.S. government's official web portal to all federal, state and local government web resources and services.